sensor_id;sensor_type;location;lat;lon;timestamp;temperature;humidity
7694;DHT22;3889;48.162;11.510;2022-12-31T00:00:49;11.70;99.90
7694;DHT22;3889;48.162;11.510;2022-12-31T00:03:17;11.80;99.90
7694;DHT22;3889;48.162;11.510;2022-12-31T00:05:45;11.80;99.90
7694;DHT22;3889;48.162;11.510;2022-12-31T00:08:13;12.00;99.90
7694;DHT22;3889;48.162;11.510;2022-12-31T00:10:41;12.00;99.90
7694;DHT22;3889;48.162;11.510;2022-12-31T00:13:10;12.20;99.90
7694;DHT22;3889;48.162;11.510;2022-12-31T00:15:38;12.10;99.90
7694;DHT22;3889;48.162;11.510;2022-12-31T00:18:09;12.00;99.90
7694;DHT22;3889;48.162;11.510;2022-12-31T00:20:38;12.10;99.90
7694;DHT22;3889;48.162;11.510;2022-12-31T00:23:08;12.20;99.90
7694;DHT22;3889;48.162;11.510;2022-12-31T00:25:36;12.10;99.90
7694;DHT22;3889;48.162;11.510;2022-12-31T00:28:04;12.20;99.90
7694;DHT22;3889;48.162;11.510;2022-12-31T00:30:33;12.30;99.90
7694;DHT22;3889;48.162;11.510;2022-12-31T00:33:01;12.50;99.90
7694;DHT22;3889;48.162;11.510;2022-12-31T00:35:30;12.40;99.90
7694;DHT22;3889;48.162;11.510;2022-12-31T00:38:00;12.40;99.90
7694;DHT22;3889;48.162;11.510;2022-12-31T00:40:28;12.40;99.90
7694;DHT22;3889;48.162;11.510;2022-12-31T00:42:55;12.40;99.90
7694;DHT22;3889;48.162;11.510;2022-12-31T00:45:23;12.40;99.90
7694;DHT22;3889;48.162;11.510;2022-12-31T00:47:51;12.50;99.90
7694;DHT22;3889;48.162;11.510;2022-12-31T00:50:19;12.70;99.90
7694;DHT22;3889;48.162;11.510;2022-12-31T00:52:48;12.70;99.90
7694;DHT22;3889;48.162;11.510;2022-12-31T00:55:16;12.90;99.90
7694;DHT22;3889;48.162;11.510;2022-12-31T00:57:44;12.90;99.90
7694;DHT22;3889;48.162;11.510;2022-12-31T01:00:13;12.80;99.90
7694;DHT22;3889;48.162;11.510;2022-12-31T01:02:41;13.00;99.90
7694;DHT22;3889;48.162;11.510;2022-12-31T01:05:09;13.00;99.90
7694;DHT22;3889;48.162;11.510;2022-12-31T01:07:36;12.90;99.90
7694;DHT22;3889;48.162;11.510;2022-12-31T01:10:07;13.00;99.90
7694;DHT22;3889;48.162;11.510;2022-12-31T01:12:35;13.00;99.90
7694;DHT22;3889;48.162;11.510;2022-12-31T01:15:03;13.20;99.90
7694;DHT22;3889;48.162;11.510;2022-12-31T01:17:31;13.20;99.90
7694;DHT22;3889;48.162;11.510;2022-12-31T01:20:00;13.20;99.90
7694;DHT22;3889;48.162;11.510;2022-12-31T01:22:28;13.10;99.90
7694;DHT22;3889;48.162;11.510;2022-12-31T01:24:56;13.20;99.90
7694;DHT22;3889;48.162;11.510;2022-12-31T01:27:25;13.20;99.90
7694;DHT22;3889;48.162;11.510;2022-12-31T01:29:53;13.20;99.90
7694;DHT22;3889;48.162;11.510;2022-12-31T01:32:21;13.30;99.90
7694;DHT22;3889;48.162;11.510;2022-12-31T01:34:49;13.20;99.90
7694;DHT22;3889;48.162;11.510;2022-12-31T01:37:17;13.20;99.90
7694;DHT22;3889;48.162;11.510;2022-12-31T01:39:44;13.30;99.90
7694;DHT22;3889;48.162;11.510;2022-12-31T01:42:12;13.30;99.90
7694;DHT22;3889;48.162;11.510;2022-12-31T01:44:52;13.30;99.90
7694;DHT22;3889;48.162;11.510;2022-12-31T01:47:36;13.30;99.90
7694;DHT22;3889;48.162;11.510;2022-12-31T01:50:12;13.30;99.90
7694;DHT22;3889;48.162;11.510;2022-12-31T01:52:44;13.20;99.90
7694;DHT22;3889;48.162;11.510;2022-12-31T01:55:15;13.30;99.90
7694;DHT22;3889;48.162;11.510;2022-12-31T01:57:46;13.30;99.90
7694;DHT22;3889;48.162;11.510;2022-12-31T02:00:17;13.30;99.90
7694;DHT22;3889;48.162;11.510;2022-12-31T02:02:46;13.40;99.90
7694;DHT22;3889;48.162;11.510;2022-12-31T02:05:18;13.30;99.90
7694;DHT22;3889;48.162;11.510;2022-12-31T02:07:49;13.30;99.90
7694;DHT22;3889;48.162;11.510;2022-12-31T02:10:17;13.30;99.90
7694;DHT22;3889;48.162;11.510;2022-12-31T02:12:45;13.20;99.90
7694;DHT22;3889;48.162;11.510;2022-12-31T02:15:13;13.30;99.90
7694;DHT22;3889;48.162;11.510;2022-12-31T02:18:01;13.30;99.90
7694;DHT22;3889;48.162;11.510;2022-12-31T02:21:06;13.30;99.90
7694;DHT22;3889;48.162;11.510;2022-12-31T02:24:12;13.30;99.90
7694;DHT22;3889;48.162;11.510;2022-12-31T02:26:52;13.30;99.90
7694;DHT22;3889;48.162;11.510;2022-12-31T02:32:34;13.30;99.90
7694;DHT22;3889;48.162;11.510;2022-12-31T02:35:07;13.20;99.90
7694;DHT22;3889;48.162;11.510;2022-12-31T02:37:38;13.30;99.90
7694;DHT22;3889;48.162;11.510;2022-12-31T02:40:10;13.30;99.90
7694;DHT22;3889;48.162;11.510;2022-12-31T02:42:40;13.30;99.90
7694;DHT22;3889;48.162;11.510;2022-12-31T02:45:10;13.30;99.90
7694;DHT22;3889;48.162;11.510;2022-12-31T02:47:51;13.30;99.90
7694;DHT22;3889;48.162;11.510;2022-12-31T02:50:34;13.30;99.90
7694;DHT22;3889;48.162;11.510;2022-12-31T02:53:14;13.30;99.90
7694;DHT22;3889;48.162;11.510;2022-12-31T02:55:53;13.30;99.90
7694;DHT22;3889;48.162;11.510;2022-12-31T02:58:26;13.30;99.90
7694;DHT22;3889;48.162;11.510;2022-12-31T03:01:22;13.30;99.90
7694;DHT22;3889;48.162;11.510;2022-12-31T03:04:12;13.40;99.90
7694;DHT22;3889;48.162;11.510;2022-12-31T03:06:59;13.50;99.90
7694;DHT22;3889;48.162;11.510;2022-12-31T03:09:28;13.50;99.90
7694;DHT22;3889;48.162;11.510;2022-12-31T03:11:56;13.50;99.90
7694;DHT22;3889;48.162;11.510;2022-12-31T03:14:41;13.40;99.90
7694;DHT22;3889;48.162;11.510;2022-12-31T03:17:09;13.40;99.90
7694;DHT22;3889;48.162;11.510;2022-12-31T03:19:38;13.60;99.90
7694;DHT22;3889;48.162;11.510;2022-12-31T03:22:24;13.60;99.90
7694;DHT22;3889;48.162;11.510;2022-12-31T03:24:57;13.70;99.90
7694;DHT22;3889;48.162;11.510;2022-12-31T03:27:42;13.70;99.90
7694;DHT22;3889;48.162;11.510;2022-12-31T03:30:11;13.70;99.90
7694;DHT22;3889;48.162;11.510;2022-12-31T03:32:42;13.70;99.90
7694;DHT22;3889;48.162;11.510;2022-12-31T03:35:12;13.60;99.90
7694;DHT22;3889;48.162;11.510;2022-12-31T03:37:40;13.60;99.90
7694;DHT22;3889;48.162;11.510;2022-12-31T03:40:11;13.70;99.90
7694;DHT22;3889;48.162;11.510;2022-12-31T03:42:39;13.80;99.90
7694;DHT22;3889;48.162;11.510;2022-12-31T03:45:09;13.90;99.90
7694;DHT22;3889;48.162;11.510;2022-12-31T03:47:37;13.80;99.90
7694;DHT22;3889;48.162;11.510;2022-12-31T03:50:06;13.80;99.90
7694;DHT22;3889;48.162;11.510;2022-12-31T03:52:36;13.70;99.90
7694;DHT22;3889;48.162;11.510;2022-12-31T03:55:05;13.70;99.90
7694;DHT22;3889;48.162;11.510;2022-12-31T03:57:33;13.70;99.90
7694;DHT22;3889;48.162;11.510;2022-12-31T04:00:02;13.80;99.90
7694;DHT22;3889;48.162;11.510;2022-12-31T04:02:30;13.80;99.90
7694;DHT22;3889;48.162;11.510;2022-12-31T04:04:58;14.00;99.90
7694;DHT22;3889;48.162;11.510;2022-12-31T04:07:26;14.00;99.90
7694;DHT22;3889;48.162;11.510;2022-12-31T04:09:56;13.90;99.90
7694;DHT22;3889;48.162;11.510;2022-12-31T04:12:24;14.00;99.90
7694;DHT22;3889;48.162;11.510;2022-12-31T04:14:52;14.10;99.90
7694;DHT22;3889;48.162;11.510;2022-12-31T04:17:20;14.00;99.90
7694;DHT22;3889;48.162;11.510;2022-12-31T04:19:47;14.20;99.90
7694;DHT22;3889;48.162;11.510;2022-12-31T04:22:15;14.10;99.90
7694;DHT22;3889;48.162;11.510;2022-12-31T04:24:43;14.20;99.90
7694;DHT22;3889;48.162;11.510;2022-12-31T04:27:13;14.30;99.90
7694;DHT22;3889;48.162;11.510;2022-12-31T04:29:40;14.20;99.90
7694;DHT22;3889;48.162;11.510;2022-12-31T04:32:08;14.10;99.90
7694;DHT22;3889;48.162;11.510;2022-12-31T04:34:36;14.00;99.90
7694;DHT22;3889;48.162;11.510;2022-12-31T04:37:04;14.20;99.90
7694;DHT22;3889;48.162;11.510;2022-12-31T04:39:32;14.10;99.90
7694;DHT22;3889;48.162;11.510;2022-12-31T04:42:00;14.00;99.90
7694;DHT22;3889;48.162;11.510;2022-12-31T04:44:29;14.10;99.90
7694;DHT22;3889;48.162;11.510;2022-12-31T04:47:00;14.10;99.90
7694;DHT22;3889;48.162;11.510;2022-12-31T04:49:28;14.20;99.90
7694;DHT22;3889;48.162;11.510;2022-12-31T04:51:56;14.20;99.90
7694;DHT22;3889;48.162;11.510;2022-12-31T04:54:24;14.10;99.90
7694;DHT22;3889;48.162;11.510;2022-12-31T04:56:51;14.10;99.90
7694;DHT22;3889;48.162;11.510;2022-12-31T04:59:19;14.00;99.90
7694;DHT22;3889;48.162;11.510;2022-12-31T05:01:49;14.10;99.90
7694;DHT22;3889;48.162;11.510;2022-12-31T05:04:17;14.30;99.90
7694;DHT22;3889;48.162;11.510;2022-12-31T05:06:45;14.30;99.90
7694;DHT22;3889;48.162;11.510;2022-12-31T05:09:12;14.30;99.90
7694;DHT22;3889;48.162;11.510;2022-12-31T05:11:40;14.30;99.90
7694;DHT22;3889;48.162;11.510;2022-12-31T05:14:08;14.50;99.90
7694;DHT22;3889;48.162;11.510;2022-12-31T05:16:36;14.30;99.90
7694;DHT22;3889;48.162;11.510;2022-12-31T05:19:05;14.20;99.90
7694;DHT22;3889;48.162;11.510;2022-12-31T05:21:35;14.40;99.90
7694;DHT22;3889;48.162;11.510;2022-12-31T05:24:03;14.50;99.90
7694;DHT22;3889;48.162;11.510;2022-12-31T05:26:31;14.40;99.90
7694;DHT22;3889;48.162;11.510;2022-12-31T05:28:59;14.30;99.90
7694;DHT22;3889;48.162;11.510;2022-12-31T05:31:27;14.20;99.90
7694;DHT22;3889;48.162;11.510;2022-12-31T05:33:55;14.20;99.90
7694;DHT22;3889;48.162;11.510;2022-12-31T05:36:24;14.20;99.90
7694;DHT22;3889;48.162;11.510;2022-12-31T05:38:52;14.10;99.90
7694;DHT22;3889;48.162;11.510;2022-12-31T05:41:20;14.10;99.90
7694;DHT22;3889;48.162;11.510;2022-12-31T05:43:49;14.10;99.90
7694;DHT22;3889;48.162;11.510;2022-12-31T05:46:17;14.10;99.90
7694;DHT22;3889;48.162;11.510;2022-12-31T05:48:44;14.00;99.90
7694;DHT22;3889;48.162;11.510;2022-12-31T05:51:12;14.00;99.90
7694;DHT22;3889;48.162;11.510;2022-12-31T05:53:41;14.00;99.90
7694;DHT22;3889;48.162;11.510;2022-12-31T05:56:09;14.10;99.90
7694;DHT22;3889;48.162;11.510;2022-12-31T05:58:37;14.10;99.90
7694;DHT22;3889;48.162;11.510;2022-12-31T06:01:05;14.00;99.90
7694;DHT22;3889;48.162;11.510;2022-12-31T06:03:33;14.00;99.90
7694;DHT22;3889;48.162;11.510;2022-12-31T06:06:00;13.90;99.90
7694;DHT22;3889;48.162;11.510;2022-12-31T06:08:29;13.80;99.90
7694;DHT22;3889;48.162;11.510;2022-12-31T06:10:58;13.70;99.90
7694;DHT22;3889;48.162;11.510;2022-12-31T06:13:26;13.70;99.90
7694;DHT22;3889;48.162;11.510;2022-12-31T06:15:54;13.60;99.90
7694;DHT22;3889;48.162;11.510;2022-12-31T06:18:22;13.50;99.90
7694;DHT22;3889;48.162;11.510;2022-12-31T06:20:50;13.40;99.90
7694;DHT22;3889;48.162;11.510;2022-12-31T06:23:17;13.40;99.90
7694;DHT22;3889;48.162;11.510;2022-12-31T06:25:45;13.40;99.90
7694;DHT22;3889;48.162;11.510;2022-12-31T06:28:14;13.30;99.90
7694;DHT22;3889;48.162;11.510;2022-12-31T06:30:46;13.30;99.90
7694;DHT22;3889;48.162;11.510;2022-12-31T06:33:14;13.20;99.90
7694;DHT22;3889;48.162;11.510;2022-12-31T06:35:42;13.30;99.90
7694;DHT22;3889;48.162;11.510;2022-12-31T06:38:10;13.20;99.90
7694;DHT22;3889;48.162;11.510;2022-12-31T06:40:37;13.20;99.90
7694;DHT22;3889;48.162;11.510;2022-12-31T06:43:05;13.10;99.90
7694;DHT22;3889;48.162;11.510;2022-12-31T06:45:35;13.30;99.90
7694;DHT22;3889;48.162;11.510;2022-12-31T06:48:03;13.20;99.90
7694;DHT22;3889;48.162;11.510;2022-12-31T06:50:31;13.20;99.90
7694;DHT22;3889;48.162;11.510;2022-12-31T06:52:59;13.20;99.90
7694;DHT22;3889;48.162;11.510;2022-12-31T06:55:27;13.10;99.90
7694;DHT22;3889;48.162;11.510;2022-12-31T06:57:55;13.10;99.90
7694;DHT22;3889;48.162;11.510;2022-12-31T07:00:23;13.10;99.90
7694;DHT22;3889;48.162;11.510;2022-12-31T07:03:11;13.10;99.90
7694;DHT22;3889;48.162;11.510;2022-12-31T07:05:45;13.10;99.90
7694;DHT22;3889;48.162;11.510;2022-12-31T07:08:21;13.00;99.90
7694;DHT22;3889;48.162;11.510;2022-12-31T07:10:57;13.00;99.90
7694;DHT22;3889;48.162;11.510;2022-12-31T07:13:50;13.00;99.90
7694;DHT22;3889;48.162;11.510;2022-12-31T07:16:28;13.00;99.90
7694;DHT22;3889;48.162;11.510;2022-12-31T07:19:09;13.00;99.90
7694;DHT22;3889;48.162;11.510;2022-12-31T07:21:40;13.00;99.90
7694;DHT22;3889;48.162;11.510;2022-12-31T07:24:09;13.00;99.90
7694;DHT22;3889;48.162;11.510;2022-12-31T07:26:49;13.00;99.90
7694;DHT22;3889;48.162;11.510;2022-12-31T07:29:33;13.10;99.90
7694;DHT22;3889;48.162;11.510;2022-12-31T07:32:13;13.10;99.90
7694;DHT22;3889;48.162;11.510;2022-12-31T07:34:50;13.10;99.90
7694;DHT22;3889;48.162;11.510;2022-12-31T07:37:29;13.10;99.90
7694;DHT22;3889;48.162;11.510;2022-12-31T07:40:04;13.10;99.90
7694;DHT22;3889;48.162;11.510;2022-12-31T07:42:41;13.20;99.90
7694;DHT22;3889;48.162;11.510;2022-12-31T07:45:16;13.10;99.90
7694;DHT22;3889;48.162;11.510;2022-12-31T07:47:46;13.10;99.90
7694;DHT22;3889;48.162;11.510;2022-12-31T07:50:17;13.10;99.90
7694;DHT22;3889;48.162;11.510;2022-12-31T07:52:45;13.00;99.90
7694;DHT22;3889;48.162;11.510;2022-12-31T07:55:13;13.00;99.90
7694;DHT22;3889;48.162;11.510;2022-12-31T07:57:49;13.00;99.90
7694;DHT22;3889;48.162;11.510;2022-12-31T08:00:18;13.00;99.90
7694;DHT22;3889;48.162;11.510;2022-12-31T08:02:58;13.00;99.90
7694;DHT22;3889;48.162;11.510;2022-12-31T08:05:32;13.00;99.90
7694;DHT22;3889;48.162;11.510;2022-12-31T08:08:13;13.00;99.90
7694;DHT22;3889;48.162;11.510;2022-12-31T08:10:47;13.00;99.90
7694;DHT22;3889;48.162;11.510;2022-12-31T08:13:18;13.00;99.90
7694;DHT22;3889;48.162;11.510;2022-12-31T08:15:47;13.10;99.90
7694;DHT22;3889;48.162;11.510;2022-12-31T08:18:15;13.10;99.90
7694;DHT22;3889;48.162;11.510;2022-12-31T08:20:54;13.20;99.90
7694;DHT22;3889;48.162;11.510;2022-12-31T08:23:31;13.20;99.90
7694;DHT22;3889;48.162;11.510;2022-12-31T08:26:21;13.30;99.90
7694;DHT22;3889;48.162;11.510;2022-12-31T08:29:20;13.30;99.90
7694;DHT22;3889;48.162;11.510;2022-12-31T08:32:00;13.20;99.90
7694;DHT22;3889;48.162;11.510;2022-12-31T08:34:36;13.20;99.90
7694;DHT22;3889;48.162;11.510;2022-12-31T08:37:10;13.30;99.90
7694;DHT22;3889;48.162;11.510;2022-12-31T08:39:51;13.40;99.90
7694;DHT22;3889;48.162;11.510;2022-12-31T08:42:26;13.40;99.90
7694;DHT22;3889;48.162;11.510;2022-12-31T08:45:02;13.50;99.90
7694;DHT22;3889;48.162;11.510;2022-12-31T08:47:43;13.50;99.90
7694;DHT22;3889;48.162;11.510;2022-12-31T08:50:13;13.60;99.90
7694;DHT22;3889;48.162;11.510;2022-12-31T08:52:44;13.80;99.90
7694;DHT22;3889;48.162;11.510;2022-12-31T08:55:14;13.90;99.90
7694;DHT22;3889;48.162;11.510;2022-12-31T08:57:47;14.10;99.90
7694;DHT22;3889;48.162;11.510;2022-12-31T09:00:20;14.20;99.90
7694;DHT22;3889;48.162;11.510;2022-12-31T09:03:09;14.40;99.90
7694;DHT22;3889;48.162;11.510;2022-12-31T09:05:51;14.50;99.90
7694;DHT22;3889;48.162;11.510;2022-12-31T09:08:29;14.70;99.90
7694;DHT22;3889;48.162;11.510;2022-12-31T09:11:09;14.80;99.90
7694;DHT22;3889;48.162;11.510;2022-12-31T09:14:07;14.90;99.90
7694;DHT22;3889;48.162;11.510;2022-12-31T09:16:47;15.00;99.90
7694;DHT22;3889;48.162;11.510;2022-12-31T09:19:18;15.00;99.90
7694;DHT22;3889;48.162;11.510;2022-12-31T09:21:46;15.00;99.90
7694;DHT22;3889;48.162;11.510;2022-12-31T09:24:16;15.10;99.90
7694;DHT22;3889;48.162;11.510;2022-12-31T09:26:51;15.10;99.90
7694;DHT22;3889;48.162;11.510;2022-12-31T09:29:33;15.10;99.90
7694;DHT22;3889;48.162;11.510;2022-12-31T09:32:11;15.20;99.90
7694;DHT22;3889;48.162;11.510;2022-12-31T09:34:45;15.20;99.90
7694;DHT22;3889;48.162;11.510;2022-12-31T09:37:16;15.20;99.90
7694;DHT22;3889;48.162;11.510;2022-12-31T09:39:48;15.20;99.90
7694;DHT22;3889;48.162;11.510;2022-12-31T09:42:41;15.20;99.90
7694;DHT22;3889;48.162;11.510;2022-12-31T09:45:35;15.20;99.90
7694;DHT22;3889;48.162;11.510;2022-12-31T09:48:43;15.20;99.90
7694;DHT22;3889;48.162;11.510;2022-12-31T09:51:27;15.30;99.90
7694;DHT22;3889;48.162;11.510;2022-12-31T09:54:24;15.40;99.90
7694;DHT22;3889;48.162;11.510;2022-12-31T10:00:12;15.60;99.90
7694;DHT22;3889;48.162;11.510;2022-12-31T10:02:51;15.70;99.90
7694;DHT22;3889;48.162;11.510;2022-12-31T10:05:51;15.90;99.90
7694;DHT22;3889;48.162;11.510;2022-12-31T10:08:40;16.00;99.90
7694;DHT22;3889;48.162;11.510;2022-12-31T10:11:17;16.00;99.90
7694;DHT22;3889;48.162;11.510;2022-12-31T10:13:54;16.10;99.90
7694;DHT22;3889;48.162;11.510;2022-12-31T10:16:43;16.20;99.90
7694;DHT22;3889;48.162;11.510;2022-12-31T10:19:38;16.30;99.90
7694;DHT22;3889;48.162;11.510;2022-12-31T10:25:13;16.50;99.90
7694;DHT22;3889;48.162;11.510;2022-12-31T10:27:50;16.60;99.90
7694;DHT22;3889;48.162;11.510;2022-12-31T10:30:23;16.50;99.90
7694;DHT22;3889;48.162;11.510;2022-12-31T10:33:02;16.60;99.90
7694;DHT22;3889;48.162;11.510;2022-12-31T10:35:38;16.50;99.90
7694;DHT22;3889;48.162;11.510;2022-12-31T10:38:24;16.50;99.90
7694;DHT22;3889;48.162;11.510;2022-12-31T10:41:24;16.60;99.90
7694;DHT22;3889;48.162;11.510;2022-12-31T10:44:28;16.50;99.90
7694;DHT22;3889;48.162;11.510;2022-12-31T10:50:42;16.40;99.90
7694;DHT22;3889;48.162;11.510;2022-12-31T11:03:17;16.30;99.90
7694;DHT22;3889;48.162;11.510;2022-12-31T11:10:06;16.30;99.90
7694;DHT22;3889;48.162;11.510;2022-12-31T11:15:52;16.30;99.90
7694;DHT22;3889;48.162;11.510;2022-12-31T11:18:28;16.20;99.90
7694;DHT22;3889;48.162;11.510;2022-12-31T11:21:08;16.20;99.90
7694;DHT22;3889;48.162;11.510;2022-12-31T11:23:42;16.20;99.90
7694;DHT22;3889;48.162;11.510;2022-12-31T11:26:21;16.20;99.90
7694;DHT22;3889;48.162;11.510;2022-12-31T11:29:13;16.20;99.90
7694;DHT22;3889;48.162;11.510;2022-12-31T11:32:03;16.30;99.90
7694;DHT22;3889;48.162;11.510;2022-12-31T11:35:01;16.30;99.90
7694;DHT22;3889;48.162;11.510;2022-12-31T11:37:41;16.30;99.90
7694;DHT22;3889;48.162;11.510;2022-12-31T11:40:35;16.40;99.90
7694;DHT22;3889;48.162;11.510;2022-12-31T11:43:18;16.50;99.90
7694;DHT22;3889;48.162;11.510;2022-12-31T11:46:01;16.50;99.90
7694;DHT22;3889;48.162;11.510;2022-12-31T11:48:40;16.50;99.90
7694;DHT22;3889;48.162;11.510;2022-12-31T11:51:30;16.60;99.90
7694;DHT22;3889;48.162;11.510;2022-12-31T11:54:28;16.60;99.90
7694;DHT22;3889;48.162;11.510;2022-12-31T11:57:01;16.70;99.90
7694;DHT22;3889;48.162;11.510;2022-12-31T11:59:33;16.80;99.90
7694;DHT22;3889;48.162;11.510;2022-12-31T12:02:15;16.90;99.90
7694;DHT22;3889;48.162;11.510;2022-12-31T12:04:47;16.90;99.90
7694;DHT22;3889;48.162;11.510;2022-12-31T12:07:17;17.10;99.90
7694;DHT22;3889;48.162;11.510;2022-12-31T12:09:46;17.10;99.90
7694;DHT22;3889;48.162;11.510;2022-12-31T12:12:16;17.10;99.90
7694;DHT22;3889;48.162;11.510;2022-12-31T12:14:50;17.10;99.90
7694;DHT22;3889;48.162;11.510;2022-12-31T12:17:25;17.10;99.90
7694;DHT22;3889;48.162;11.510;2022-12-31T12:20:01;17.30;99.90
7694;DHT22;3889;48.162;11.510;2022-12-31T12:22:30;17.30;99.90
7694;DHT22;3889;48.162;11.510;2022-12-31T12:25:02;17.40;99.90
7694;DHT22;3889;48.162;11.510;2022-12-31T12:27:34;17.60;99.90
7694;DHT22;3889;48.162;11.510;2022-12-31T12:30:17;17.70;99.90
7694;DHT22;3889;48.162;11.510;2022-12-31T12:32:51;17.90;99.90
7694;DHT22;3889;48.162;11.510;2022-12-31T12:35:24;18.00;99.90
7694;DHT22;3889;48.162;11.510;2022-12-31T12:38:00;18.00;99.90
7694;DHT22;3889;48.162;11.510;2022-12-31T12:40:29;18.30;99.90
7694;DHT22;3889;48.162;11.510;2022-12-31T12:43:00;18.40;99.90
7694;DHT22;3889;48.162;11.510;2022-12-31T12:45:41;18.40;99.90
7694;DHT22;3889;48.162;11.510;2022-12-31T12:48:20;18.50;99.90
7694;DHT22;3889;48.162;11.510;2022-12-31T12:50:52;18.50;99.90
7694;DHT22;3889;48.162;11.510;2022-12-31T12:53:29;18.40;99.90
7694;DHT22;3889;48.162;11.510;2022-12-31T12:56:07;18.30;99.90
7694;DHT22;3889;48.162;11.510;2022-12-31T12:58:53;18.20;99.90
7694;DHT22;3889;48.162;11.510;2022-12-31T13:01:29;18.10;99.90
7694;DHT22;3889;48.162;11.510;2022-12-31T13:04:15;18.00;99.90
7694;DHT22;3889;48.162;11.510;2022-12-31T13:07:11;18.00;99.90
7694;DHT22;3889;48.162;11.510;2022-12-31T13:10:02;17.80;99.90
7694;DHT22;3889;48.162;11.510;2022-12-31T13:12:37;17.70;99.90
7694;DHT22;3889;48.162;11.510;2022-12-31T13:15:32;17.60;99.90
7694;DHT22;3889;48.162;11.510;2022-12-31T13:18:13;17.40;99.90
7694;DHT22;3889;48.162;11.510;2022-12-31T13:20:48;17.40;99.90
7694;DHT22;3889;48.162;11.510;2022-12-31T13:23:22;17.40;99.90
7694;DHT22;3889;48.162;11.510;2022-12-31T13:25:59;17.40;99.90
7694;DHT22;3889;48.162;11.510;2022-12-31T13:28:32;17.30;99.90
7694;DHT22;3889;48.162;11.510;2022-12-31T13:31:03;17.30;99.90
7694;DHT22;3889;48.162;11.510;2022-12-31T13:33:37;17.20;99.90
7694;DHT22;3889;48.162;11.510;2022-12-31T13:36:07;17.00;99.90
7694;DHT22;3889;48.162;11.510;2022-12-31T13:38:39;16.90;99.90
7694;DHT22;3889;48.162;11.510;2022-12-31T13:41:12;16.90;99.90
7694;DHT22;3889;48.162;11.510;2022-12-31T13:43:46;16.80;99.90
7694;DHT22;3889;48.162;11.510;2022-12-31T13:46:21;16.70;99.90
7694;DHT22;3889;48.162;11.510;2022-12-31T13:48:53;16.70;99.90
7694;DHT22;3889;48.162;11.510;2022-12-31T13:51:32;16.60;99.90
7694;DHT22;3889;48.162;11.510;2022-12-31T13:54:02;16.50;99.90
7694;DHT22;3889;48.162;11.510;2022-12-31T13:56:35;16.40;99.90
7694;DHT22;3889;48.162;11.510;2022-12-31T13:59:10;16.40;99.90
7694;DHT22;3889;48.162;11.510;2022-12-31T14:01:45;16.30;99.90
7694;DHT22;3889;48.162;11.510;2022-12-31T14:04:21;16.20;99.90
7694;DHT22;3889;48.162;11.510;2022-12-31T14:06:54;16.10;99.90
7694;DHT22;3889;48.162;11.510;2022-12-31T14:09:26;16.10;99.90
7694;DHT22;3889;48.162;11.510;2022-12-31T14:12:12;16.00;99.90
7694;DHT22;3889;48.162;11.510;2022-12-31T14:14:50;15.90;99.90
7694;DHT22;3889;48.162;11.510;2022-12-31T14:17:25;15.80;99.90
7694;DHT22;3889;48.162;11.510;2022-12-31T14:20:02;15.70;99.90
7694;DHT22;3889;48.162;11.510;2022-12-31T14:22:37;15.60;99.90
7694;DHT22;3889;48.162;11.510;2022-12-31T14:25:16;15.60;99.90
7694;DHT22;3889;48.162;11.510;2022-12-31T14:27:46;15.50;99.90
7694;DHT22;3889;48.162;11.510;2022-12-31T14:30:18;15.30;99.90
7694;DHT22;3889;48.162;11.510;2022-12-31T14:33:10;15.30;99.90
7694;DHT22;3889;48.162;11.510;2022-12-31T14:35:55;15.10;99.90
7694;DHT22;3889;48.162;11.510;2022-12-31T14:38:41;15.00;99.90
7694;DHT22;3889;48.162;11.510;2022-12-31T14:41:21;14.90;99.90
7694;DHT22;3889;48.162;11.510;2022-12-31T14:44:02;14.80;99.90
7694;DHT22;3889;48.162;11.510;2022-12-31T14:46:37;14.80;99.90
7694;DHT22;3889;48.162;11.510;2022-12-31T14:49:19;14.70;99.90
7694;DHT22;3889;48.162;11.510;2022-12-31T14:51:52;14.50;99.90
7694;DHT22;3889;48.162;11.510;2022-12-31T14:54:26;14.30;99.90
7694;DHT22;3889;48.162;11.510;2022-12-31T14:56:55;14.20;99.90
7694;DHT22;3889;48.162;11.510;2022-12-31T14:59:25;14.20;99.90
7694;DHT22;3889;48.162;11.510;2022-12-31T15:01:54;14.10;99.90
7694;DHT22;3889;48.162;11.510;2022-12-31T15:04:30;14.00;99.90
7694;DHT22;3889;48.162;11.510;2022-12-31T15:07:05;13.90;99.90
7694;DHT22;3889;48.162;11.510;2022-12-31T15:10:02;13.80;99.90
7694;DHT22;3889;48.162;11.510;2022-12-31T15:12:54;13.80;99.90
7694;DHT22;3889;48.162;11.510;2022-12-31T15:16:00;13.60;99.90
7694;DHT22;3889;48.162;11.510;2022-12-31T15:18:45;13.50;99.90
7694;DHT22;3889;48.162;11.510;2022-12-31T15:21:28;13.40;99.90
7694;DHT22;3889;48.162;11.510;2022-12-31T15:24:12;13.20;99.90
7694;DHT22;3889;48.162;11.510;2022-12-31T15:26:47;13.10;99.90
7694;DHT22;3889;48.162;11.510;2022-12-31T15:29:30;13.10;99.90
7694;DHT22;3889;48.162;11.510;2022-12-31T15:32:01;12.90;99.90
7694;DHT22;3889;48.162;11.510;2022-12-31T15:34:31;12.90;99.90
7694;DHT22;3889;48.162;11.510;2022-12-31T15:37:01;12.70;99.90
7694;DHT22;3889;48.162;11.510;2022-12-31T15:39:41;12.70;99.90
7694;DHT22;3889;48.162;11.510;2022-12-31T15:42:33;12.60;99.90
7694;DHT22;3889;48.162;11.510;2022-12-31T15:45:13;12.50;99.90
7694;DHT22;3889;48.162;11.510;2022-12-31T15:47:46;12.30;99.90
7694;DHT22;3889;48.162;11.510;2022-12-31T15:50:19;12.30;99.90
7694;DHT22;3889;48.162;11.510;2022-12-31T15:52:51;12.20;99.90
7694;DHT22;3889;48.162;11.510;2022-12-31T15:55:29;12.20;99.90
7694;DHT22;3889;48.162;11.510;2022-12-31T15:57:58;12.10;99.90
7694;DHT22;3889;48.162;11.510;2022-12-31T16:00:37;12.00;99.90
7694;DHT22;3889;48.162;11.510;2022-12-31T16:03:19;11.90;99.90
7694;DHT22;3889;48.162;11.510;2022-12-31T16:05:48;11.90;99.90
7694;DHT22;3889;48.162;11.510;2022-12-31T16:08:19;11.80;99.90
7694;DHT22;3889;48.162;11.510;2022-12-31T16:10:49;11.70;99.90
7694;DHT22;3889;48.162;11.510;2022-12-31T16:13:19;11.70;99.90
7694;DHT22;3889;48.162;11.510;2022-12-31T16:15:50;11.60;99.90
7694;DHT22;3889;48.162;11.510;2022-12-31T16:18:18;11.50;99.90
7694;DHT22;3889;48.162;11.510;2022-12-31T16:20:49;11.50;99.90
7694;DHT22;3889;48.162;11.510;2022-12-31T16:23:22;11.50;99.90
7694;DHT22;3889;48.162;11.510;2022-12-31T16:25:53;11.40;99.90
7694;DHT22;3889;48.162;11.510;2022-12-31T16:28:28;11.40;99.90
7694;DHT22;3889;48.162;11.510;2022-12-31T16:31:00;11.30;99.90
7694;DHT22;3889;48.162;11.510;2022-12-31T16:33:29;11.10;99.90
7694;DHT22;3889;48.162;11.510;2022-12-31T16:35:59;11.10;99.90
7694;DHT22;3889;48.162;11.510;2022-12-31T16:38:32;11.10;99.90
7694;DHT22;3889;48.162;11.510;2022-12-31T16:41:17;11.10;99.90
7694;DHT22;3889;48.162;11.510;2022-12-31T16:43:47;11.00;99.90
7694;DHT22;3889;48.162;11.510;2022-12-31T16:46:17;11.10;99.90
7694;DHT22;3889;48.162;11.510;2022-12-31T16:48:48;11.10;99.90
7694;DHT22;3889;48.162;11.510;2022-12-31T16:51:20;10.90;99.90
7694;DHT22;3889;48.162;11.510;2022-12-31T16:53:49;10.80;99.90
7694;DHT22;3889;48.162;11.510;2022-12-31T16:56:23;10.80;99.90
7694;DHT22;3889;48.162;11.510;2022-12-31T16:58:57;10.80;99.90
7694;DHT22;3889;48.162;11.510;2022-12-31T17:01:29;10.70;99.90